メインページ
METAR-TAF:

METAR-TAF

空港 :

カネオヘ, ハワイ州, アメリカ合衆国

緯度: 21-27-14N, 経度: 157-45-56W, 海抜: 5m

現時点の気象観測

当レポートは14分前の00:04(UTC)に作成
北東の風 8kt
気温 30°C
湿度 79%
気圧 1012 hPa
視程: 16.1km
高度3600ftの雲は散在している

METAR: PHNG 210004Z 04008KT 10SM SCT036 30/26 A2988 RMK AO2 T03000256 $

時間: 14:18 (00:18 UTC)


TAF: 見つかりません

4,000以上の空港の気象観測と天気予報(METAR報とTAF報)

利用可能な観測所は地図上に黄色い丸と赤い丸で示す。

丸の上にカーソルを重ねると観測所名を参照できる。

次にクリックすると気象観測と天気予報を参照できる。

マップの切り替え:黒色「×」印の緑ボタンをクリックして拡大、「-」印の緑ボタンをクリックして縮小、緑色の三角印をクリックして隣りの地図に切り替え


METAR-TAF: